Aérodrome :
LOGIN :

S'inscrire | Disclaimer

   EN    FR    IT 

 










Légende :    VFR   VFR Marginal   IFR   IFR Intensif   IFR Très Intensif
Visi : 
Plafond : 
>= 8 km
>= 3000ft
5 à 8 km
1000 à 3000 ft
1500m à 5 km
500 à 1000 ft
800 à 1500m
200 à 500 ft
< 800m
< 200 ft
Symboles :   Orages  Brouillard  Fortes neiges  Fortes précipitations  Vent > 20 kt
SIGMETs :   Divers  Orages  Givrage  Turbulence  Onde Orograph.  Cendres Volcan.






- Altitude de l'aérodrome : 604 ft
- Code IATA : LCJ


EPLL - Lodz

DERNIER METAR :
  • 151330Z 20005KT 120V240 CAVOK 30/14 Q1014

METARs EXPIRÉS :
  • 151300Z 22005KT 150V300 CAVOK 30/15 Q1015
  • 151230Z 26006KT 210V330 CAVOK 29/14 Q1015
  • 151200Z VRB06KT CAVOK 29/14 Q1015
  • 151130Z 22004KT 170V290 CAVOK 29/15 Q1015
  • 151100Z 24009KT 200V290 CAVOK 29/15 Q1015
  • 151030Z 23007KT 160V270 CAVOK 28/16 Q1015
  • 151000Z 22007KT 180V270 9999 FEW048 28/16 Q1015
  • 150930Z 22006KT 180V260 9999 SCT037 28/15 Q1015
  • 150900Z 25005KT 210V280 9999 SCT033 27/18 Q1015

TAF TAF EPLL
Valide du 15 à 12h jusqu'au 16 à 12h UTC


151130Z 1512/1612 VRB05KT CAVOK
TEMPO 1512/1514 24010KT
BECMG 1604/1606 12010KT
TEMPO 1611/1612 14015G28KT 4000 SHRA BKN040CB



MET'MAP, la Météo Aéronautique d'un coup d'oeil ! - Copyright ORBIFLY Décembre 2007 - Disclaimer

ORBIFLY MET'MAP TEAM :

Programmation & Développement : Alexandra Zaïnal
Sur une idée originale de : Baudouin d'Aumeries
Soutien technique & logistique : Manuel Goepfert
Assistance : Marc-Olivier Méhu




SOURCES & CREDITS :

   NOAA